Time;durP1;ratioP1;P1;durP2;ratioP2;P2;SDS_P1;SDS_P2;PMS_P1;PMS_P2;Temp;Humidity;BMP_temperature;BMP_pressure;BME280_temperature;BME280_humidity;BME280_pressure;Samples;Min_cycle;Max_cycle;Signal;HPM_P1;HPM_P2
2022/06/06 00:01:40;;;;;;;12.73;8.23;;;;;;;14.76;100.00;100787.25;5016381;28;20124;-74
2022/06/06 00:04:06;;;;;;;11.52;8.32;;;;;;;14.83;100.00;100778.44;5019592;28;20120;-76
2022/06/06 00:06:31;;;;;;;13.60;8.67;;;;;;;14.75;100.00;100766.78;5038607;28;20025;-76
2022/06/06 00:08:58;;;;;;;12.33;8.33;;;;;;;14.73;100.00;100768.00;5026684;28;20491;-76
2022/06/06 00:11:24;;;;;;;13.20;8.90;;;;;;;14.78;100.00;100761.03;5008902;28;20415;-75
2022/06/06 00:13:50;;;;;;;10.30;7.72;;;;;;;14.79;100.00;100748.41;5042838;22;20041;-73
2022/06/06 00:16:15;;;;;;;12.80;9.48;;;;;;;14.80;100.00;100747.41;5015256;28;20045;-73
2022/06/06 00:18:40;;;;;;;13.97;9.57;;;;;;;14.86;100.00;100737.75;5008418;28;20379;-72
2022/06/06 00:21:09;;;;;;;13.03;9.40;;;;;;;14.81;100.00;100737.47;5008713;28;20489;-72
2022/06/06 00:23:36;;;;;;;13.88;8.80;;;;;;;14.81;100.00;100737.47;5023186;28;20041;-72
2022/06/06 00:26:04;;;;;;;;;;;;;;;14.81;100.00;100737.47;4992621;28;20022;-72
2022/06/06 00:28:29;;;;;;;13.82;10.25;;;;;;;14.86;100.00;100727.00;5026787;28;20430;-73
2022/06/06 00:34:48;;;;;;;14.17;9.27;;;;;;;14.94;100.00;100721.50;5008740;28;20025;-72
2022/06/06 00:36:31;;;;;;;13.35;9.80;;;;;;;14.89;100.00;100697.03;5026040;28;20049;-72
2022/06/06 00:38:57;;;;;;;12.65;9.20;;;;;;;14.83;100.00;100700.50;5025130;28;20108;-72
2022/06/06 00:41:22;;;;;;;13.77;9.70;;;;;;;14.82;100.00;100696.13;5025806;28;20108;-72
2022/06/06 00:44:05;;;;;;;15.67;9.47;;;;;;;14.83;100.00;100681.69;5025728;28;20363;-72
2022/06/06 00:46:34;;;;;;;14.73;9.25;;;;;;;14.93;100.00;100676.81;5026171;28;20075;-72
2022/06/06 00:49:02;;;;;;;12.10;8.98;;;;;;;14.88;100.00;100668.50;4991887;28;20096;-72
2022/06/06 00:51:28;;;;;;;14.30;9.00;;;;;;;14.88;100.00;100663.13;5025978;28;20056;-72
2022/06/06 00:53:58;;;;;;;13.52;8.63;;;;;;;14.88;100.00;100663.94;5008247;28;20026;-72
2022/06/06 00:56:42;;;;;;;15.70;9.38;;;;;;;14.82;100.00;100658.50;5008194;28;20044;-72
2022/06/06 00:59:15;;;;;;;13.10;9.02;;;;;;;14.76;100.00;100654.75;5022593;28;20112;-72
2022/06/06 01:01:41;;;;;;;13.82;9.50;;;;;;;14.73;100.00;100649.75;5025472;28;20607;-72
2022/06/06 01:04:11;;;;;;;14.93;10.07;;;;;;;14.70;100.00;100634.88;5008161;28;20092;-72
2022/06/06 01:06:39;;;;;;;14.88;10.18;;;;;;;14.71;100.00;100638.38;5007818;28;20589;-72
2022/06/06 01:09:05;;;;;;;12.80;8.95;;;;;;;14.71;100.00;100635.69;5007923;28;20041;-72
2022/06/06 01:11:42;;;;;;;11.30;8.73;;;;;;;14.73;100.00;100620.22;4999631;28;20041;-72
2022/06/06 01:14:11;;;;;;;12.00;9.68;;;;;;;14.77;100.00;100625.00;4989869;28;20030;-72
2022/06/06 01:17:02;;;;;;;15.32;8.48;;;;;;;14.87;100.00;100631.91;5007650;28;20049;-72
2022/06/06 01:19:51;;;;;;;12.65;8.93;;;;;;;14.74;100.00;100620.00;5007484;28;20037;-70
2022/06/06 01:22:17;;;;;;;12.00;8.10;;;;;;;14.78;100.00;100607.84;5010895;28;20041;-70
2022/06/06 01:24:45;;;;;;;12.02;8.65;;;;;;;14.82;100.00;100610.13;4997575;28;20350;-70
2022/06/06 01:27:22;;;;;;;13.15;8.05;;;;;;;14.90;100.00;100605.47;5025282;28;20548;-70
2022/06/06 01:30:05;;;;;;;8.95;7.72;;;;;;;14.85;100.00;100631.28;5008927;28;20041;-70
2022/06/06 01:32:38;;;;;;;9.07;7.65;;;;;;;14.74;100.00;100673.75;5007105;28;20044;-70
2022/06/06 01:35:04;;;;;;;9.60;7.60;;;;;;;14.68;100.00;100685.28;5003818;28;20500;-70
2022/06/06 01:37:40;;;;;;;;;;;;;;;14.69;100.00;100703.03;4996913;28;20042;-71
2022/06/06 01:40:13;;;;;;;15.30;8.82;;;;;;;14.57;100.00;100701.88;5021503;28;19924;-71
2022/06/06 01:43:00;;;;;;;15.73;8.43;;;;;;;14.46;100.00;100705.03;5004203;28;20406;-71
2022/06/06 01:45:31;;;;;;;12.27;8.60;;;;;;;14.46;100.00;100696.97;5007655;28;20095;-71
2022/06/06 01:48:24;;;;;;;12.48;9.15;;;;;;;14.48;100.00;100689.56;5007281;28;20041;-70
2022/06/06 01:50:50;;;;;;;10.88;8.55;;;;;;;14.50;100.00;100676.78;5022627;28;20053;-70
2022/06/06 01:53:19;;;;;;;10.68;8.38;;;;;;;14.52;100.00;100674.72;5024795;28;20103;-70
2022/06/06 01:55:46;;;;;;;12.73;8.95;;;;;;;14.55;100.00;100683.25;5006743;28;20550;-69
2022/06/06 01:58:16;;;;;;;17.90;10.85;;;;;;;14.61;100.00;100684.38;4991149;28;20025;-69
2022/06/06 02:00:42;;;;;;;18.20;10.82;;;;;;;14.53;100.00;100687.13;5025182;28;20037;-69
2022/06/06 02:03:08;;;;;;;13.35;9.45;;;;;;;14.49;100.00;100681.31;5007253;28;20025;-70
2022/06/06 02:05:34;;;;;;;15.63;10.75;;;;;;;14.30;100.00;100669.31;4991492;28;20128;-70
2022/06/06 02:07:59;;;;;;;14.80;9.57;;;;;;;14.38;100.00;100670.25;5025156;28;20121;-70
2022/06/06 02:10:25;;;;;;;14.50;10.13;;;;;;;14.39;100.00;100670.03;5007913;28;20041;-70
2022/06/06 02:12:51;;;;;;;14.50;10.52;;;;;;;14.24;100.00;100653.13;5024754;28;20033;-71
2022/06/06 02:15:18;;;;;;;12.80;8.98;;;;;;;14.28;100.00;100649.03;5024309;28;20048;-69
2022/06/06 02:17:44;;;;;;;18.30;10.48;;;;;;;14.32;100.00;100645.78;5007710;28;20497;-69
2022/06/06 02:20:12;;;;;;;13.35;9.63;;;;;;;14.36;100.00;100644.38;5007187;28;20060;-69
2022/06/06 02:22:38;;;;;;;13.15;8.73;;;;;;;14.25;100.00;100628.75;5024624;28;20025;-69
2022/06/06 02:25:06;;;;;;;13.00;9.25;;;;;;;14.17;100.00;100625.38;5025285;28;20478;-72
2022/06/06 02:27:33;;;;;;;14.40;9.73;;;;;;;14.15;100.00;100617.50;5007571;28;20033;-70
2022/06/06 02:29:59;;;;;;;10.57;8.43;;;;;;;14.16;100.00;100627.22;5024785;28;20029;-70
2022/06/06 02:32:24;;;;;;;13.65;10.18;;;;;;;14.21;100.00;100627.50;5007190;28;20596;-70
2022/06/06 02:34:50;;;;;;;16.20;9.57;;;;;;;14.10;100.00;100622.63;5007358;28;20116;-70
2022/06/06 02:37:15;;;;;;;13.67;9.60;;;;;;;14.03;100.00;100619.84;5007432;28;20065;-69
2022/06/06 02:39:41;;;;;;;17.20;9.70;;;;;;;13.99;100.00;100629.28;5024803;28;20026;-70
2022/06/06 02:42:07;;;;;;;11.68;8.73;;;;;;;13.98;100.00;100614.22;5007144;28;20040;-70
2022/06/06 02:44:32;;;;;;;15.17;10.23;;;;;;;13.97;100.00;100622.44;5007237;28;20034;-73
2022/06/06 02:46:57;;;;;;;14.93;9.63;;;;;;;13.99;100.00;100620.41;5024739;28;20033;-73
2022/06/06 02:49:23;;;;;;;16.93;10.30;;;;;;;14.03;100.00;100616.34;5007151;28;20037;-73
2022/06/06 02:51:48;;;;;;;13.80;9.77;;;;;;;14.08;100.00;100630.84;5024450;28;20079;-73
2022/06/06 02:54:13;;;;;;;13.57;9.57;;;;;;;14.14;100.00;100618.50;5024883;28;20514;-70
2022/06/06 02:56:39;;;;;;;14.57;11.03;;;;;;;14.14;100.00;100611.31;5007320;28;20034;-70
2022/06/06 02:59:06;;;;;;;15.50;11.03;;;;;;;14.11;100.00;100608.16;5024771;28;20876;-70
2022/06/06 03:01:32;;;;;;;14.85;10.75;;;;;;;14.14;100.00;100608.63;5004637;28;20116;-70
2022/06/06 03:03:57;;;;;;;13.93;10.57;;;;;;;14.17;100.00;100610.09;4994375;28;20044;-70
2022/06/06 03:07:00;;;;;;;13.98;10.23;;;;;;;14.13;100.00;100606.13;5010711;28;20026;-71
2022/06/06 03:09:41;;;;;;;14.43;10.30;;;;;;;14.06;100.00;100597.16;5023793;28;20545;-70
2022/06/06 03:12:37;;;;;;;22.10;11.27;;;;;;;14.09;100.00;100603.00;5020553;28;20175;-71
2022/06/06 03:15:21;;;;;;;15.10;10.27;;;;;;;14.09;100.00;100604.81;5010484;28;20041;-71
2022/06/06 03:21:32;;;;;;;19.75;10.73;;;;;;;14.01;100.00;100595.03;4912147;29;20572;-71
2022/06/06 03:24:22;;;;;;;19.13;11.38;;;;;;;14.04;100.00;100596.50;5010240;28;20481;-71
2022/06/06 03:27:18;;;;;;;17.45;10.60;;;;;;;14.03;100.00;100597.53;5010318;28;20512;-71
2022/06/06 03:29:49;;;;;;;18.65;11.75;;;;;;;14.08;100.00;100604.00;5010036;28;20041;-74
2022/06/06 03:32:39;;;;;;;15.65;11.30;;;;;;;14.19;100.00;100604.50;5027839;28;20214;-70
2022/06/06 03:35:11;;;;;;;17.42;12.27;;;;;;;14.15;100.00;100604.09;5020540;28;20033;-71
2022/06/06 03:37:44;;;;;;;20.63;12.68;;;;;;;14.19;100.00;100601.84;4998715;28;20049;-70
2022/06/06 03:40:33;;;;;;;16.17;11.75;;;;;;;14.15;100.00;100594.16;5027829;28;20377;-70
2022/06/06 03:43:34;;;;;;;18.55;11.30;;;;;;;14.23;100.00;100590.53;5009968;28;20091;-70
2022/06/06 03:46:21;;;;;;;16.92;13.40;;;;;;;14.25;100.00;100604.59;5005661;28;20140;-70
2022/06/06 03:49:15;;;;;;;18.15;13.90;;;;;;;14.29;100.00;100605.88;5025941;28;20144;-71
2022/06/06 03:52:06;;;;;;;18.13;13.40;;;;;;;14.36;100.00;100600.59;5024833;28;20391;-70
2022/06/06 03:54:36;;;;;;;18.85;13.63;;;;;;;14.38;100.00;100611.16;5027481;28;20039;-70
2022/06/06 03:57:12;;;;;;;18.63;13.43;;;;;;;14.42;100.00;100610.59;5023647;28;20087;-70
2022/06/06 03:59:39;;;;;;;18.20;14.27;;;;;;;14.54;100.00;100613.63;5009938;28;20056;-71
2022/06/06 04:02:06;;;;;;;19.60;14.38;;;;;;;14.65;100.00;100614.94;4993307;28;20025;-70
2022/06/06 04:04:32;;;;;;;23.95;14.73;;;;;;;14.71;100.00;100609.63;5027371;28;20475;-71
2022/06/06 04:06:59;;;;;;;21.48;14.63;;;;;;;14.76;100.00;100612.56;5027346;28;20497;-71
2022/06/06 04:09:28;;;;;;;22.65;15.65;;;;;;;14.78;100.00;100613.22;5027171;28;20098;-71
2022/06/06 04:12:18;;;;;;;20.08;16.13;;;;;;;14.81;100.00;100620.06;5008977;28;20481;-71
2022/06/06 04:15:04;;;;;;;23.63;15.82;;;;;;;14.82;100.00;100611.00;5027221;28;20429;-72
2022/06/06 04:17:41;;;;;;;21.17;16.20;;;;;;;14.87;100.00;100618.47;5009524;28;20069;-71
2022/06/06 04:20:22;;;;;;;23.30;15.70;;;;;;;14.92;100.00;100602.59;5019567;28;20033;-71
2022/06/06 04:23:24;;;;;;;21.70;16.15;;;;;;;14.97;100.00;100609.03;4992745;28;20038;-71
2022/06/06 04:26:08;;;;;;;21.23;16.30;;;;;;;15.03;100.00;100612.81;4992886;28;20102;-71
2022/06/06 04:28:59;;;;;;;25.58;17.98;;;;;;;15.02;100.00;100595.00;5005607;28;20498;-71
2022/06/06 04:31:27;;;;;;;22.23;17.15;;;;;;;15.15;100.00;100605.88;4996069;28;20030;-71
2022/06/06 04:34:01;;;;;;;23.60;16.25;;;;;;;15.25;100.00;100605.50;5026561;28;20640;-71
2022/06/06 04:36:43;;;;;;;22.50;16.02;;;;;;;15.34;100.00;100608.91;5009200;28;20053;-71
2022/06/06 04:39:11;;;;;;;22.77;17.60;;;;;;;15.38;100.00;100610.13;5002061;28;20121;-71
2022/06/06 04:41:51;;;;;;;20.63;15.75;;;;;;;15.36;100.00;100601.47;5008706;28;20036;-71
2022/06/06 04:44:36;;;;;;;24.55;15.63;;;;;;;15.43;100.00;100607.72;5026620;28;20036;-71
2022/06/06 04:47:05;;;;;;;19.27;15.30;;;;;;;15.39;100.00;100615.31;5018786;28;20082;-71
2022/06/06 04:49:32;;;;;;;19.80;16.20;;;;;;;15.38;100.00;100623.59;5008920;28;20037;-72
2022/06/06 04:51:59;;;;;;;19.88;14.73;;;;;;;15.40;100.00;100626.91;5026016;28;20034;-71
2022/06/06 04:54:26;;;;;;;24.80;17.30;;;;;;;15.43;100.00;100623.84;5008662;28;20021;-71
2022/06/06 04:56:53;;;;;;;21.55;15.80;;;;;;;15.37;100.00;100621.94;5026357;28;20042;-71
2022/06/06 04:59:21;;;;;;;18.80;14.43;;;;;;;15.39;100.00;100634.16;5008515;28;20036;-71
2022/06/06 05:01:50;;;;;;;18.98;14.70;;;;;;;15.47;100.00;100637.72;5025386;28;20706;-71
2022/06/06 05:04:15;;;;;;;17.40;12.18;;;;;;;15.48;100.00;100632.16;5008582;28;20024;-71
2022/06/06 05:07:13;;;;;;;16.80;12.60;;;;;;;15.51;100.00;100630.94;5026289;28;20385;-71
2022/06/06 05:09:55;;;;;;;15.52;11.80;;;;;;;15.51;100.00;100637.13;5023031;28;20780;-71
2022/06/06 05:12:32;;;;;;;15.80;11.65;;;;;;;15.55;100.00;100633.03;5025784;28;20090;-71
2022/06/06 05:15:29;;;;;;;11.90;10.35;;;;;;;15.55;100.00;100627.66;5025643;28;20129;-71
2022/06/06 05:18:05;;;;;;;11.05;9.70;;;;;;;15.54;100.00;100627.84;4980878;28;20892;-71
2022/06/06 05:20:59;;;;;;;13.20;9.95;;;;;;;15.51;100.00;100631.75;5026038;28;20060;-71
2022/06/06 05:23:52;;;;;;;13.90;9.88;;;;;;;15.57;100.00;100640.91;5024669;28;20532;-71
2022/06/06 05:26:43;;;;;;;10.77;9.18;;;;;;;15.55;100.00;100637.59;4994428;28;20041;-71
2022/06/06 05:29:14;;;;;;;10.30;8.48;;;;;;;15.55;100.00;100632.19;5018739;28;20091;-71
2022/06/06 05:32:29;;;;;;;10.63;9.20;;;;;;;15.51;100.00;100645.19;5007808;28;20036;-71
2022/06/06 05:35:07;;;;;;;11.68;8.63;;;;;;;15.52;100.00;100643.34;4988154;28;20038;-71
2022/06/06 05:37:54;;;;;;;9.27;7.53;;;;;;;15.57;100.00;100644.44;5021983;28;20041;-71
2022/06/06 05:40:25;;;;;;;9.20;7.78;;;;;;;15.66;100.00;100646.94;5024991;28;20595;-71
2022/06/06 05:43:09;;;;;;;8.45;7.50;;;;;;;15.76;100.00;100644.78;5024833;28;20107;-71
2022/06/06 05:46:00;;;;;;;9.40;7.70;;;;;;;15.76;100.00;100642.91;5025696;28;20095;-72
2022/06/06 05:48:48;;;;;;;7.82;6.70;;;;;;;15.80;100.00;100649.56;5020233;28;20044;-71
2022/06/06 05:51:28;;;;;;;7.85;7.00;;;;;;;15.88;100.00;100640.47;5018970;28;20139;-71
2022/06/06 05:54:21;;;;;;;9.57;6.80;;;;;;;15.95;100.00;100645.91;5007539;28;20030;-71
2022/06/06 05:56:58;;;;;;;7.30;5.90;;;;;;;16.12;100.00;100651.75;5005920;28;20117;-71
2022/06/06 05:59:46;;;;;;;9.10;7.13;;;;;;;16.14;100.00;100663.16;5025196;28;20037;-71
2022/06/06 06:02:30;;;;;;;7.97;6.25;;;;;;;16.17;100.00;100660.06;5001051;28;20637;-71
2022/06/06 06:05:14;;;;;;;8.15;6.78;;;;;;;16.18;100.00;100659.88;5025289;28;20025;-71
2022/06/06 06:08:30;;;;;;;9.05;5.95;;;;;;;16.32;100.00;100659.91;5022798;28;20490;-71
2022/06/06 06:10:59;;;;;;;8.40;5.72;;;;;;;16.32;100.00;100660.75;4988024;28;20060;-71
2022/06/06 06:13:40;;;;;;;7.88;6.10;;;;;;;16.21;100.00;100669.41;5025597;28;20111;-72
2022/06/06 06:16:07;;;;;;;9.68;6.18;;;;;;;16.20;100.00;100673.13;5017842;28;20047;-72
2022/06/06 06:18:47;;;;;;;9.15;5.97;;;;;;;16.37;100.00;100671.75;4991365;28;20500;-71
2022/06/06 06:21:20;;;;;;;6.95;6.00;;;;;;;16.10;100.00;100667.28;5000932;28;20041;-72
2022/06/06 06:24:08;;;;;;;6.68;5.35;;;;;;;16.18;100.00;100675.22;5025200;28;20037;-72
2022/06/06 06:26:35;;;;;;;8.45;6.70;;;;;;;16.13;100.00;100672.25;5007735;28;20120;-70
2022/06/06 06:29:07;;;;;;;8.82;5.20;;;;;;;16.21;100.00;100675.63;5017051;28;20399;-72
2022/06/06 06:31:48;;;;;;;7.05;5.28;;;;;;;16.29;100.00;100684.56;5007629;28;20129;-71
2022/06/06 06:34:29;;;;;;;10.88;5.50;;;;;;;16.25;100.00;100687.66;4985247;28;20040;-72
2022/06/06 06:37:22;;;;;;;13.63;5.25;;;;;;;16.25;100.00;100692.22;5009120;28;20036;-72
2022/06/06 06:39:53;;;;;;;8.85;5.80;;;;;;;16.26;100.00;100685.78;5028363;28;20041;-71
2022/06/06 06:42:31;;;;;;;7.72;6.10;;;;;;;16.27;100.00;100684.75;5009531;28;20048;-71
2022/06/06 06:45:07;;;;;;;9.40;5.53;;;;;;;16.32;100.00;100698.47;5028512;28;20065;-71
2022/06/06 06:47:35;;;;;;;8.90;6.40;;;;;;;16.29;100.00;100703.41;5028482;28;20052;-70
2022/06/06 06:50:06;;;;;;;9.15;6.63;;;;;;;16.27;100.00;100703.59;5020185;28;20071;-72
2022/06/06 06:52:54;;;;;;;8.40;6.07;;;;;;;16.23;100.00;100703.19;5028512;28;20037;-71
2022/06/06 06:55:43;;;;;;;9.13;6.60;;;;;;;16.46;100.00;100710.94;5005657;28;20129;-72
2022/06/06 06:58:25;;;;;;;7.82;6.55;;;;;;;16.34;100.00;100715.28;5021104;28;20033;-70
2022/06/06 07:00:56;;;;;;;10.95;6.40;;;;;;;16.39;100.00;100720.88;5028264;28;20061;-72
2022/06/06 07:09:40;;;;;;;11.40;6.63;;;;;;;16.42;100.00;100709.69;4997316;28;20046;-71
2022/06/06 07:12:39;;;;;;;11.43;6.35;;;;;;;16.57;100.00;100714.91;5002657;28;20045;-72
2022/06/06 07:15:12;;;;;;;9.98;6.80;;;;;;;16.37;100.00;100704.06;5002647;28;20036;-71
2022/06/06 07:17:45;;;;;;;9.90;6.20;;;;;;;16.58;100.00;100708.50;5028215;28;20030;-71
2022/06/06 07:20:14;;;;;;;9.00;7.40;;;;;;;16.53;100.00;100705.59;5010513;28;20045;-70
2022/06/06 07:23:02;;;;;;;10.45;6.55;;;;;;;16.73;100.00;100715.59;5010030;28;20029;-73
2022/06/06 07:25:44;;;;;;;7.95;6.15;;;;;;;16.80;100.00;100705.69;5010608;28;20021;-71
2022/06/06 07:28:13;;;;;;;9.52;6.80;;;;;;;17.07;100.00;100726.25;5021145;28;20040;-73
2022/06/06 07:30:46;;;;;;;9.27;6.80;;;;;;;16.97;100.00;100714.22;5010374;28;20033;-71
2022/06/06 07:33:32;;;;;;;14.07;6.85;;;;;;;17.21;100.00;100719.00;5009938;28;20457;-71
2022/06/06 07:36:07;;;;;;;8.98;6.43;;;;;;;16.99;100.00;100695.97;5010142;28;20116;-72
2022/06/06 07:38:54;;;;;;;9.57;6.57;;;;;;;17.04;100.00;100697.00;4990048;28;20096;-71
2022/06/06 07:42:00;;;;;;;10.43;7.25;;;;;;;17.27;100.00;100704.69;4988431;28;20715;-72
2022/06/06 07:44:48;;;;;;;12.60;8.27;;;;;;;16.97;100.00;100695.31;5005487;28;20048;-72
2022/06/06 07:47:55;;;;;;;11.43;7.10;;;;;;;17.02;100.00;100709.88;4993419;28;20025;-71
2022/06/06 07:50:25;;;;;;;13.95;8.65;;;;;;;17.08;100.00;100727.91;5004683;28;20079;-72
2022/06/06 07:53:12;;;;;;;15.60;9.20;;;;;;;17.08;100.00;100719.00;5027142;28;20124;-72
2022/06/06 07:55:49;;;;;;;16.20;9.80;;;;;;;16.99;100.00;100731.84;5024204;28;20069;-71
2022/06/06 07:58:18;;;;;;;18.73;9.85;;;;;;;17.18;100.00;100735.59;5009751;28;20080;-71
2022/06/06 08:00:48;;;;;;;13.77;8.95;;;;;;;17.22;100.00;100715.25;5027438;28;20029;-72
2022/06/06 08:03:23;;;;;;;13.35;7.88;;;;;;;17.13;100.00;100738.09;5027196;28;20470;-71
2022/06/06 08:05:54;;;;;;;16.55;10.07;;;;;;;17.16;100.00;100732.31;4993361;28;20025;-72
2022/06/06 08:08:45;;;;;;;15.93;9.43;;;;;;;17.12;100.00;100744.53;5009472;28;20033;-72
2022/06/06 08:11:25;;;;;;;12.48;8.55;;;;;;;17.12;100.00;100736.44;5020113;28;20048;-71
2022/06/06 08:13:57;;;;;;;14.50;9.43;;;;;;;17.20;100.00;100722.72;5026904;28;20029;-71
2022/06/06 08:16:38;;;;;;;15.90;9.60;;;;;;;17.01;100.00;100718.16;5009549;28;20045;-71
2022/06/06 08:19:35;;;;;;;20.42;10.00;;;;;;;16.89;100.00;100726.03;5023222;28;20076;-71
2022/06/06 08:51:30;;;;;;;16.63;11.40;;;;;;;16.83;100.00;100765.44;5098774;27;20393;-76
2022/06/06 08:54:52;;;;;;;17.83;11.32;;;;;;;17.09;100.00;100763.81;5087374;28;20033;-76
2022/06/06 08:57:27;;;;;;;15.98;9.88;;;;;;;17.12;100.00;100754.50;5010843;28;20044;-75
2022/06/06 09:00:16;;;;;;;14.45;9.52;;;;;;;16.93;100.00;100753.41;5087334;28;20066;-76
2022/06/06 09:03:04;;;;;;;16.90;10.85;;;;;;;16.77;100.00;100736.53;5087280;28;20040;-74
2022/06/06 09:05:38;;;;;;;15.43;9.82;;;;;;;17.02;100.00;100758.41;5079390;28;20039;-76
2022/06/06 09:08:21;;;;;;;17.95;11.23;;;;;;;16.91;100.00;100763.59;5086413;28;20128;-76
2022/06/06 09:11:20;;;;;;;18.27;10.95;;;;;;;16.86;100.00;100767.72;5081060;28;20047;-76
2022/06/06 09:14:01;;;;;;;15.95;10.55;;;;;;;16.88;100.00;100789.91;5069147;28;20032;-76
2022/06/06 09:16:47;;;;;;;17.52;10.80;;;;;;;16.90;100.00;100772.69;5069566;28;20058;-77
2022/06/06 09:19:34;;;;;;;16.33;11.02;;;;;;;16.71;100.00;100753.53;5088209;28;20177;-74
2022/06/06 09:22:08;;;;;;;14.23;10.15;;;;;;;16.81;100.00;100751.31;5068823;28;20116;-76
2022/06/06 09:24:55;;;;;;;16.58;9.13;;;;;;;16.80;100.00;100757.72;5080809;28;20589;-76
2022/06/06 09:27:40;;;;;;;16.00;9.27;;;;;;;16.74;100.00;100755.84;5052990;28;20474;-75
2022/06/06 09:30:22;;;;;;;14.32;9.68;;;;;;;16.90;100.00;100770.00;5053060;28;20043;-75
2022/06/06 09:33:10;;;;;;;18.50;9.45;;;;;;;16.97;100.00;100774.34;5052946;28;20125;-74
2022/06/06 09:35:52;;;;;;;15.98;9.07;;;;;;;17.07;100.00;100760.50;5015936;28;20048;-77
2022/06/06 09:38:48;;;;;;;17.42;9.50;;;;;;;17.03;100.00;100767.34;5086750;28;20037;-76
2022/06/06 09:41:36;;;;;;;16.42;9.20;;;;;;;17.05;100.00;100767.97;5069381;28;20051;-75
2022/06/06 09:44:10;;;;;;;16.02;8.95;;;;;;;16.86;100.00;100756.09;5088155;28;20107;-76
2022/06/06 09:47:13;;;;;;;16.05;9.70;;;;;;;16.49;100.00;100747.44;5062286;28;20036;-76
2022/06/06 09:50:01;;;;;;;14.63;8.93;;;;;;;16.44;100.00;100780.38;5067985;28;20040;-75
2022/06/06 09:52:54;;;;;;;14.00;9.32;;;;;;;16.64;100.00;100782.31;5027300;28;20052;-76
2022/06/06 09:59:06;;;;;;;15.73;9.18;;;;;;;16.45;100.00;100770.44;5055691;28;20068;-77
2022/06/06 10:01:40;;;;;;;13.95;8.32;;;;;;;16.48;100.00;100790.75;5042994;28;20411;-77
2022/06/06 10:04:55;;;;;;;13.60;8.63;;;;;;;16.40;100.00;100789.88;5056726;28;20036;-78
2022/06/06 10:07:31;;;;;;;13.20;8.68;;;;;;;16.16;100.00;100795.78;5055881;28;20036;-76
2022/06/06 10:10:22;;;;;;;16.52;8.98;;;;;;;16.10;100.00;100807.31;5054313;28;20056;-76
2022/06/06 10:13:09;;;;;;;16.33;9.27;;;;;;;16.19;100.00;100806.16;5074611;28;20060;-77
2022/06/06 10:15:55;;;;;;;16.95;9.00;;;;;;;16.39;100.00;100798.19;5049529;28;20087;-76
2022/06/06 10:18:49;;;;;;;16.60;8.60;;;;;;;16.97;100.00;100806.72;5056639;28;20033;-75
2022/06/06 10:21:17;;;;;;;10.20;7.60;;;;;;;18.59;100.00;100780.28;5074030;28;20060;-77
2022/06/06 10:24:14;;;;;;;12.93;8.45;;;;;;;18.81;100.00;100648.31;5073633;28;20078;-76
2022/06/06 10:26:39;;;;;;;12.48;7.43;;;;;;;18.57;100.00;100639.09;5054625;28;20032;-76
2022/06/06 10:29:26;;;;;;;12.80;7.70;;;;;;;17.84;100.00;100598.91;5072305;28;20086;-76
2022/06/06 10:32:16;;;;;;;11.63;7.15;;;;;;;17.86;100.00;100580.63;5037585;28;20114;-76
2022/06/06 10:35:13;;;;;;;12.10;7.35;;;;;;;17.53;100.00;100651.72;5048077;28;20111;-76
2022/06/06 10:38:10;;;;;;;11.27;7.80;;;;;;;17.01;100.00;100626.47;5065125;28;20028;-76
2022/06/06 10:40:49;;;;;;;9.52;7.10;;;;;;;17.67;100.00;100737.03;5036945;28;20040;-76
2022/06/06 10:43:37;;;;;;;11.77;6.95;;;;;;;18.24;100.00;100685.19;5053324;28;20046;-78
2022/06/06 10:46:17;;;;;;;11.20;7.18;;;;;;;18.38;100.00;100653.53;5036523;28;20036;-77
2022/06/06 10:49:07;;;;;;;9.98;7.63;;;;;;;18.02;100.00;100612.53;5047433;28;20426;-78
2022/06/06 10:52:10;;;;;;;10.13;6.88;;;;;;;17.95;100.00;100657.66;5025585;28;20025;-77
2022/06/06 10:54:50;;;;;;;9.75;6.82;;;;;;;17.78;100.00;100680.75;5063979;28;20486;-77
2022/06/06 10:57:27;;;;;;;10.98;6.90;;;;;;;17.91;100.00;100678.88;5072318;28;20637;-75
2022/06/06 11:00:03;;;;;;;8.75;6.03;;;;;;;17.96;100.00;100635.03;5038493;28;20055;-76
2022/06/06 11:03:02;;;;;;;7.68;5.35;;;;;;;19.87;100.00;100700.69;5038372;28;20040;-76
2022/06/06 11:05:46;;;;;;;11.07;6.47;;;;;;;20.67;100.00;100517.97;5055634;28;20127;-77
2022/06/06 11:08:14;;;;;;;7.32;5.22;;;;;;;20.81;100.00;100418.19;5038703;28;20028;-76
2022/06/06 11:11:12;;;;;;;8.00;5.82;;;;;;;20.96;100.00;100445.69;5053199;28;20024;-77
2022/06/06 11:13:59;;;;;;;7.45;5.72;;;;;;;21.12;100.00;100375.41;5064555;28;20044;-76
2022/06/06 11:16:50;;;;;;;11.13;5.43;;;;;;;21.67;100.00;100362.09;5053498;28;20040;-77
2022/06/06 11:19:52;;;;;;;9.45;5.38;;;;;;;21.48;100.00;100326.19;5071133;28;20075;-76
2022/06/06 11:22:24;;;;;;;8.55;5.47;;;;;;;21.39;100.00;100338.47;5053057;28;20041;-77
2022/06/06 11:25:18;;;;;;;7.25;4.88;;;;;;;21.97;100.00;100403.63;5071431;28;20090;-76
2022/06/06 11:28:05;;;;;;;8.50;4.75;;;;;;;21.84;92.56;100285.19;5065532;28;20181;-76
2022/06/06 11:30:45;;;;;;;6.45;5.45;;;;;;;20.71;100.00;100304.06;5045806;28;20471;-77
2022/06/06 11:33:36;;;;;;;7.82;4.55;;;;;;;20.76;100.00;100388.25;5071938;28;20056;-78
2022/06/06 11:36:57;;;;;;;7.45;5.85;;;;;;;21.12;100.00;100380.84;5037137;28;20029;-77
2022/06/06 11:39:41;;;;;;;7.72;4.78;;;;;;;21.83;94.98;100381.38;4978600;28;20048;-77
2022/06/06 11:42:33;;;;;;;6.18;5.03;;;;;;;22.46;82.67;100219.75;5052399;28;20060;-76
2022/06/06 11:45:36;;;;;;;6.72;4.60;;;;;;;22.58;87.86;100384.75;5069890;28;20082;-78
2022/06/06 11:48:04;;;;;;;7.72;5.75;;;;;;;20.81;93.22;100203.88;5070315;28;20047;-78
2022/06/06 11:50:58;;;;;;;9.13;5.72;;;;;;;21.02;94.33;100292.72;5062460;28;20425;-77
2022/06/06 11:54:02;;;;;;;8.70;4.90;;;;;;;21.37;92.72;100328.94;5035653;28;20037;-77
2022/06/06 11:56:46;;;;;;;6.75;5.57;;;;;;;21.86;91.87;100375.44;5035390;28;20028;-77
2022/06/06 11:59:33;;;;;;;7.97;5.00;;;;;;;21.91;96.94;100454.34;5071194;28;20513;-77
2022/06/06 12:02:09;;;;;;;7.40;5.15;;;;;;;22.19;87.19;100313.97;5036463;28;20032;-78
2022/06/06 12:04:52;;;;;;;6.55;5.05;;;;;;;22.75;87.00;100408.09;5063282;28;20043;-76
2022/06/06 12:07:39;;;;;;;8.02;5.20;;;;;;;22.64;81.63;100247.69;5069778;28;20040;-77
2022/06/06 12:10:19;;;;;;;7.63;5.65;;;;;;;21.53;90.37;100267.59;5051512;28;20131;-78
2022/06/06 12:12:52;;;;;;;6.82;4.95;;;;;;;21.11;98.75;100400.91;5052167;28;20483;-76
2022/06/06 12:15:29;;;;;;;7.45;5.50;;;;;;;21.21;98.13;100395.69;5051612;28;20504;-76
2022/06/06 12:18:13;;;;;;;7.65;5.35;;;;;;;21.53;100.00;100474.00;5036084;28;20036;-76
2022/06/06 12:20:56;;;;;;;9.77;6.22;;;;;;;21.21;99.52;100407.38;5047928;28;20522;-78
2022/06/06 12:23:32;;;;;;;10.20;5.78;;;;;;;21.14;95.56;100351.56;5068123;28;20448;-77
2022/06/06 12:26:16;;;;;;;9.50;5.43;;;;;;;20.19;100.00;100354.44;5068240;28;20044;-77
2022/06/06 12:29:04;;;;;;;9.07;5.50;;;;;;;19.81;100.00;100495.72;5043175;28;20032;-76
2022/06/06 12:31:44;;;;;;;7.50;5.63;;;;;;;19.57;100.00;100619.31;5047835;28;20039;-76
2022/06/06 12:34:27;;;;;;;8.13;4.90;;;;;;;19.57;100.00;100649.09;5081660;28;20580;-76
2022/06/06 12:36:59;;;;;;;7.65;5.32;;;;;;;19.97;100.00;100702.84;5052241;28;20043;-77
2022/06/06 12:39:52;;;;;;;6.72;5.10;;;;;;;20.17;100.00;100651.97;5049752;28;20047;-76
2022/06/06 12:42:26;;;;;;;7.15;6.28;;;;;;;19.99;100.00;100600.50;5049251;28;20033;-77
2022/06/06 12:45:11;;;;;;;9.35;6.63;;;;;;;20.22;100.00;100610.63;5047481;28;20159;-76
2022/06/06 12:47:45;;;;;;;8.40;6.25;;;;;;;19.95;100.00;100562.22;5047863;28;20029;-76
2022/06/06 12:50:24;;;;;;;5.70;5.13;;;;;;;20.02;100.00;100488.97;5047105;28;20645;-76